Terminal Aerodrome Forecast
Issued by NWS

Home | Current Version | Previous Version | Text Only | Print | Product List | Glossary On
Versions: 1 2 3 4 5 6 7 8 9 10 11 12 13 14 15 16 17
000
FTUS43 KJKL 282333
TAFSME
TAF
KSME 282333Z 2900/2924 25004KT P6SM BKN050
      TEMPO 2902/2904 4SM SHRA OVC010
     FM290400 26004KT P6SM VCSH BKN015
     FM291000 VRB03KT 2SM BR BKN007
     FM291300 VRB03KT P6SM SCT015
     FM291800 27004KT P6SM SCT140=

USA.gov is the U.S. government's official web portal to all federal, state and local government web resources and services.